Time;durP1;ratioP1;P1;durP2;ratioP2;P2;SDS_P1;SDS_P2;PMS_P1;PMS_P2;Temp;Humidity;BMP_temperature;BMP_pressure;BME280_temperature;BME280_humidity;BME280_pressure;Samples;Min_cycle;Max_cycle;Signal;HPM_P1;HPM_P2
2023/06/19 00:02:17;;;;;;;2.95;2.67;;;;;;;14.78;100.00;91107.97;5013440;28;20104;-69
2023/06/19 00:04:42;;;;;;;1.73;1.63;;;;;;;14.75;100.00;91103.25;5013526;28;20030;-69
2023/06/19 00:07:07;;;;;;;3.05;1.67;;;;;;;14.75;100.00;91103.25;5013452;28;20041;-69
2023/06/19 00:09:33;;;;;;;1.85;1.75;;;;;;;14.66;100.00;91104.13;5013486;28;20033;-69
2023/06/19 00:11:59;;;;;;;2.15;2.03;;;;;;;14.62;100.00;91105.88;5013395;28;20180;-69
2023/06/19 00:14:25;;;;;;;1.95;1.50;;;;;;;14.60;100.00;91107.31;5013329;28;20033;-69
2023/06/19 00:16:50;;;;;;;2.65;2.33;;;;;;;14.57;100.00;91100.75;5013235;28;20033;-69
2023/06/19 00:19:17;;;;;;;1.83;1.50;;;;;;;14.50;100.00;91105.81;5013298;28;20076;-69
2023/06/19 00:21:42;;;;;;;1.42;1.33;;;;;;;14.27;100.00;91093.88;5013161;28;20053;-69
2023/06/19 00:24:09;;;;;;;1.08;1.08;;;;;;;14.15;100.00;91097.25;5013178;28;20139;-69
2023/06/19 00:26:34;;;;;;;1.30;1.30;;;;;;;14.11;100.00;91098.22;5013191;28;20472;-69
2023/06/19 00:29:00;;;;;;;2.33;2.17;;;;;;;14.02;100.00;91104.41;5012996;28;20109;-69
2023/06/19 00:31:27;;;;;;;4.07;2.53;;;;;;;13.94;100.00;91094.56;5013085;28;20018;-69
2023/06/19 00:33:52;;;;;;;1.50;1.45;;;;;;;14.00;100.00;91109.31;5013270;28;20044;-69
2023/06/19 00:36:23;;;;;;;4.80;1.90;;;;;;;14.05;100.00;91097.66;5012862;28;20389;-69
2023/06/19 00:38:48;;;;;;;1.85;1.73;;;;;;;14.09;100.00;91098.56;5012843;28;20040;-69
2023/06/19 00:41:16;;;;;;;1.90;1.80;;;;;;;13.97;100.00;91083.22;5012924;28;20022;-69
2023/06/19 00:43:42;;;;;;;1.52;1.42;;;;;;;14.03;100.00;91084.56;5012777;28;20510;-69
2023/06/19 00:46:08;;;;;;;1.95;1.85;;;;;;;14.04;100.00;91094.19;5011355;28;20026;-69
2023/06/19 00:48:34;;;;;;;2.75;2.33;;;;;;;13.96;100.00;91084.31;5012671;28;20030;-69
2023/06/19 00:51:00;;;;;;;2.05;1.95;;;;;;;13.85;100.00;91075.09;5011346;28;20025;-70
2023/06/19 00:53:25;;;;;;;2.65;1.70;;;;;;;13.81;100.00;91073.41;5012688;28;20060;-69
2023/06/19 00:55:52;;;;;;;1.75;1.27;;;;;;;13.77;100.00;91081.31;5012579;28;20491;-70
2023/06/19 00:58:19;;;;;;;1.73;1.63;;;;;;;13.72;100.00;91078.78;5012526;28;20038;-69
2023/06/19 01:00:45;;;;;;;3.90;1.90;;;;;;;13.64;100.00;91076.97;5011879;28;20028;-69
2023/06/19 01:03:10;;;;;;;1.63;1.52;;;;;;;13.63;100.00;91083.41;5012329;28;20470;-69
2023/06/19 01:05:36;;;;;;;1.83;1.73;;;;;;;13.57;100.00;91072.13;5012462;28;20022;-69
2023/06/19 01:08:14;;;;;;;1.25;1.25;;;;;;;13.66;100.00;91075.53;5012603;28;20033;-69
2023/06/19 01:10:49;;;;;;;2.45;2.35;;;;;;;13.78;100.00;91080.19;5012321;28;20492;-69
2023/06/19 01:13:45;;;;;;;4.47;2.70;;;;;;;13.81;100.00;91076.88;5012201;28;20061;-69
2023/06/19 01:16:12;;;;;;;1.83;1.73;;;;;;;13.83;100.00;91079.22;5008585;28;20102;-69
2023/06/19 01:18:38;;;;;;;2.55;2.35;;;;;;;13.89;100.00;91069.91;5012408;28;20045;-69
2023/06/19 01:21:17;;;;;;;1.45;1.35;;;;;;;14.04;100.00;91075.47;5010777;28;20095;-69
2023/06/19 01:23:43;;;;;;;1.23;1.23;;;;;;;14.17;100.00;91075.50;5012109;28;20524;-69
2023/06/19 01:26:09;;;;;;;1.60;1.50;;;;;;;14.17;100.00;91075.50;5011963;28;20582;-69
2023/06/19 01:28:39;;;;;;;2.35;1.88;;;;;;;14.17;100.00;91075.50;5011712;28;20052;-69
2023/06/19 01:31:13;;;;;;;1.23;1.13;;;;;;;14.21;100.00;91071.09;5011949;28;20484;-69
2023/06/19 01:33:41;;;;;;;2.85;2.65;;;;;;;14.27;100.00;91075.13;5012135;28;20052;-69
2023/06/19 01:36:07;;;;;;;1.15;1.15;;;;;;;14.35;100.00;91080.41;5011804;28;20026;-68
2023/06/19 01:38:34;;;;;;;1.70;1.60;;;;;;;14.29;100.00;91078.25;5012047;28;20030;-68
2023/06/19 01:41:01;;;;;;;1.00;1.00;;;;;;;14.22;100.00;91076.13;5011629;28;20025;-68
2023/06/19 01:43:28;;;;;;;1.30;1.30;;;;;;;14.20;100.00;91077.53;5011685;28;20103;-69
2023/06/19 01:45:53;;;;;;;1.75;1.65;;;;;;;14.18;100.00;91077.88;5011733;28;20472;-69
2023/06/19 01:48:19;;;;;;;1.42;1.33;;;;;;;14.21;100.00;91074.56;5010292;28;20108;-68
2023/06/19 01:50:47;;;;;;;2.30;1.98;;;;;;;14.29;100.00;91075.59;5011653;28;20030;-68
2023/06/19 01:53:13;;;;;;;1.70;1.58;;;;;;;14.33;100.00;91077.28;5026733;28;20116;-68
2023/06/19 01:55:38;;;;;;;2.08;1.83;;;;;;;14.32;100.00;91069.56;5011532;28;20104;-69
2023/06/19 01:58:03;;;;;;;2.03;1.92;;;;;;;14.30;100.00;91072.59;5011441;28;20419;-69
2023/06/19 02:00:30;;;;;;;2.08;1.98;;;;;;;14.24;100.00;91068.53;5011345;28;20484;-69
2023/06/19 02:02:55;;;;;;;1.67;1.23;;;;;;;14.17;100.00;91075.50;5011222;28;20671;-68
2023/06/19 02:05:21;;;;;;;2.08;1.98;;;;;;;14.02;100.00;91083.00;5011347;28;20100;-69
2023/06/19 02:07:47;;;;;;;2.08;1.42;;;;;;;13.98;100.00;91076.75;5011329;28;20038;-69
2023/06/19 02:10:12;;;;;;;1.65;1.55;;;;;;;14.03;100.00;91084.56;5011209;28;20109;-69
2023/06/19 02:12:38;;;;;;;1.92;1.83;;;;;;;14.05;100.00;91081.59;5010518;28;20033;-68
2023/06/19 02:15:04;;;;;;;1.80;1.67;;;;;;;13.99;100.00;91067.63;5011267;28;20105;-70
2023/06/19 02:17:29;;;;;;;2.97;1.88;;;;;;;14.13;100.00;91087.97;5011154;28;20100;-69
2023/06/19 02:19:55;;;;;;;1.73;1.50;;;;;;;14.29;100.00;91079.03;5011262;28;20560;-69
2023/06/19 02:22:20;;;;;;;2.05;1.77;;;;;;;14.35;100.00;91085.75;5011171;28;20036;-69
2023/06/19 02:24:45;;;;;;;1.20;1.10;;;;;;;14.47;100.00;91082.38;5011273;28;20030;-69
2023/06/19 02:27:11;;;;;;;1.20;1.17;;;;;;;14.51;100.00;91088.66;5011065;28;20077;-69
2023/06/19 02:29:37;;;;;;;2.80;1.67;;;;;;;14.57;100.00;91091.94;5011212;28;20125;-68
2023/06/19 02:32:02;;;;;;;1.30;1.15;;;;;;;14.42;100.00;91089.81;5011153;28;20026;-68
2023/06/19 02:34:28;;;;;;;1.80;1.70;;;;;;;14.34;100.00;91094.13;5011190;28;20034;-68
2023/06/19 02:36:53;;;;;;;1.45;1.38;;;;;;;14.39;100.00;91099.28;5009779;28;20022;-69
2023/06/19 02:39:19;;;;;;;2.15;1.85;;;;;;;14.35;100.00;91090.31;5011052;28;20033;-69
2023/06/19 02:41:45;;;;;;;1.10;1.10;;;;;;;14.33;100.00;91085.31;5010965;28;20053;-69
2023/06/19 02:44:14;;;;;;;1.65;1.55;;;;;;;14.29;100.00;91089.75;5011161;28;20052;-69
2023/06/19 02:46:40;;;;;;;1.40;1.40;;;;;;;14.32;100.00;91085.63;5011000;28;20026;-69
2023/06/19 02:49:05;;;;;;;1.83;1.30;;;;;;;14.30;100.00;91093.22;5011005;28;20531;-69
2023/06/19 02:51:30;;;;;;;1.20;1.15;;;;;;;14.31;100.00;91095.56;5011001;28;20025;-69
2023/06/19 02:53:56;;;;;;;0.90;0.90;;;;;;;14.25;100.00;91096.09;5010760;28;20068;-69
2023/06/19 02:56:22;;;;;;;1.92;1.83;;;;;;;14.33;100.00;91090.66;5010742;28;20506;-69
2023/06/19 02:58:48;;;;;;;1.55;1.25;;;;;;;14.34;100.00;91089.53;5010930;28;20037;-69
2023/06/19 03:01:13;;;;;;;1.60;1.50;;;;;;;14.28;100.00;91088.19;5010874;28;20096;-69
2023/06/19 03:03:40;;;;;;;1.60;1.50;;;;;;;14.34;100.00;91094.13;5010697;28;20046;-68
2023/06/19 03:06:07;;;;;;;1.25;1.25;;;;;;;14.36;100.00;91091.91;5010997;28;20137;-69
2023/06/19 03:08:37;;;;;;;1.70;1.60;;;;;;;14.38;100.00;91095.84;5011033;28;20088;-68
2023/06/19 03:11:05;;;;;;;1.23;1.10;;;;;;;14.43;100.00;91092.16;5010759;28;20079;-68
2023/06/19 03:13:47;;;;;;;1.05;1.05;;;;;;;14.36;100.00;91091.91;5010721;28;20095;-69
2023/06/19 03:16:14;;;;;;;1.25;1.20;;;;;;;14.34;100.00;91092.22;5010520;28;20030;-69
2023/06/19 03:18:41;;;;;;;1.10;1.10;;;;;;;14.42;100.00;91093.28;5010640;28;20033;-69
2023/06/19 03:21:06;;;;;;;2.20;2.00;;;;;;;14.42;100.00;91093.28;5010905;28;20030;-69
2023/06/19 03:23:32;;;;;;;1.70;1.60;;;;;;;14.38;100.00;91095.03;5012920;28;20056;-69
2023/06/19 03:25:57;;;;;;;1.67;1.58;;;;;;;14.31;100.00;91089.41;5014223;28;20109;-69
2023/06/19 03:28:23;;;;;;;2.47;1.92;;;;;;;14.19;100.00;91094.69;5014225;28;20079;-69
2023/06/19 03:30:49;;;;;;;2.95;2.75;;;;;;;14.14;100.00;91086.88;5014139;28;20113;-69
2023/06/19 03:33:15;;;;;;;2.20;1.98;;;;;;;14.20;100.00;91093.59;5014160;28;20033;-69
2023/06/19 03:35:40;;;;;;;1.60;1.50;;;;;;;14.14;100.00;91090.34;5014113;28;20036;-70
2023/06/19 03:38:06;;;;;;;2.30;1.33;;;;;;;14.21;100.00;91095.19;5014188;28;20085;-70
2023/06/19 03:40:31;;;;;;;1.38;1.27;;;;;;;14.26;100.00;91086.94;5013891;28;20562;-69
2023/06/19 03:42:57;;;;;;;2.30;2.10;;;;;;;14.29;100.00;91083.63;5013869;28;20026;-69
2023/06/19 03:45:22;;;;;;;1.77;1.67;;;;;;;14.42;100.00;91095.16;5013889;28;20030;-69
2023/06/19 03:47:47;;;;;;;0.95;0.95;;;;;;;14.45;100.00;91095.31;5013851;28;20060;-69
2023/06/19 03:50:13;;;;;;;1.88;1.75;;;;;;;14.46;100.00;91094.22;5013779;28;20427;-69
2023/06/19 03:52:38;;;;;;;1.45;1.40;;;;;;;14.55;100.00;91094.94;5013797;28;20038;-69
2023/06/19 03:55:04;;;;;;;2.17;1.95;;;;;;;14.67;100.00;91092.31;5013624;28;20026;-69
2023/06/19 03:57:29;;;;;;;1.80;1.70;;;;;;;14.79;100.00;91096.91;5013574;28;20112;-69
2023/06/19 03:59:56;;;;;;;2.45;2.25;;;;;;;14.76;100.00;91096.78;5013618;28;20502;-70
2023/06/19 04:02:22;;;;;;;1.88;1.48;;;;;;;14.73;100.00;91094.78;5013341;28;20137;-69
2023/06/19 04:04:48;;;;;;;1.48;1.38;;;;;;;14.67;100.00;91086.16;5013507;28;20097;-69
2023/06/19 04:07:13;;;;;;;10.27;8.43;;;;;;;14.55;100.00;91089.59;5013378;28;20545;-70
2023/06/19 04:09:39;;;;;;;3.25;2.45;;;;;;;14.62;100.00;91089.81;5013485;28;20072;-70
2023/06/19 04:12:05;;;;;;;1.42;1.35;;;;;;;14.77;100.00;91099.13;5013688;28;20034;-70
2023/06/19 04:14:30;;;;;;;4.57;2.47;;;;;;;14.77;100.00;91093.00;5013105;28;20022;-70
2023/06/19 04:16:55;;;;;;;2.15;2.05;;;;;;;14.89;100.00;91085.00;5013091;28;20419;-70
2023/06/19 04:19:21;;;;;;;1.55;1.45;;;;;;;14.92;100.00;91087.81;5013199;28;20100;-70
2023/06/19 04:21:46;;;;;;;1.45;1.35;;;;;;;15.05;100.00;91094.00;5013152;28;20022;-69
2023/06/19 04:24:12;;;;;;;5.20;1.80;;;;;;;15.11;100.00;91089.97;5013138;28;20475;-69
2023/06/19 04:26:37;;;;;;;2.47;1.98;;;;;;;15.17;100.00;91091.34;5013094;28;20058;-69
2023/06/19 04:29:03;;;;;;;2.22;2.03;;;;;;;15.24;100.00;91091.56;5013102;28;20030;-70
2023/06/19 04:31:30;;;;;;;1.05;1.05;;;;;;;15.28;100.00;91087.09;5013075;28;20026;-69
2023/06/19 04:33:56;;;;;;;1.70;1.60;;;;;;;15.38;100.00;91087.81;5012448;28;20400;-69
2023/06/19 04:36:22;;;;;;;6.68;2.28;;;;;;;15.39;100.00;91082.09;5012996;28;20419;-68
2023/06/19 04:38:47;;;;;;;2.55;2.35;;;;;;;15.48;100.00;91082.78;5012980;28;20065;-68
2023/06/19 04:41:13;;;;;;;2.15;1.92;;;;;;;15.36;100.00;91080.09;5012530;28;20121;-70
2023/06/19 04:43:41;;;;;;;2.33;1.85;;;;;;;15.19;100.00;91083.75;5012757;28;20480;-70
2023/06/19 04:46:07;;;;;;;2.72;1.98;;;;;;;15.10;100.00;91082.28;5011322;28;20125;-70
2023/06/19 04:48:32;;;;;;;2.97;2.38;;;;;;;15.10;100.00;91079.59;5012608;28;20101;-71
2023/06/19 04:51:00;;;;;;;3.85;2.17;;;;;;;15.12;100.00;91088.06;5012650;28;20113;-71
2023/06/19 04:53:27;;;;;;;1.95;1.42;;;;;;;15.26;100.00;91083.97;5012704;28;20034;-71
2023/06/19 04:55:54;;;;;;;2.50;2.40;;;;;;;15.51;100.00;91081.34;5012462;28;20032;-66
2023/06/19 04:58:20;;;;;;;1.63;1.52;;;;;;;15.49;100.00;91083.56;5012828;28;20455;-64
2023/06/19 05:00:50;;;;;;;2.63;1.20;;;;;;;15.67;100.00;91079.59;5012389;28;20030;-67
2023/06/19 05:03:16;;;;;;;1.20;1.20;;;;;;;15.82;100.00;91076.22;5012214;28;20512;-68
2023/06/19 05:05:42;;;;;;;1.80;1.70;;;;;;;16.02;100.00;91085.25;5027598;28;20018;-70
2023/06/19 05:08:07;;;;;;;2.28;2.17;;;;;;;16.11;100.00;91085.16;5012493;28;20459;-69
2023/06/19 05:10:33;;;;;;;3.60;2.05;;;;;;;16.23;100.00;91089.69;5012076;28;20077;-69
2023/06/19 05:12:58;;;;;;;2.88;1.95;;;;;;;16.29;100.00;91083.78;5022706;28;20599;-68
2023/06/19 05:15:24;;;;;;;2.03;1.92;;;;;;;16.14;100.00;91092.53;5015191;28;20447;-76
2023/06/19 05:17:49;;;;;;;2.13;2.03;;;;;;;16.18;100.00;91085.34;5022578;28;20033;-68
2023/06/19 05:20:15;;;;;;;1.70;1.60;;;;;;;16.29;100.00;91081.09;5021991;28;20493;-68
2023/06/19 05:22:41;;;;;;;1.50;1.40;;;;;;;16.39;100.00;91080.59;5017226;28;20045;-71
2023/06/19 05:25:06;;;;;;;2.25;1.80;;;;;;;16.52;100.00;91084.03;5031837;28;20519;-73
2023/06/19 05:27:32;;;;;;;2.05;1.95;;;;;;;16.85;100.00;91083.06;5031658;28;20029;-70
2023/06/19 05:29:58;;;;;;;1.30;1.23;;;;;;;17.08;100.00;91075.22;5018456;28;20030;-70
2023/06/19 05:32:23;;;;;;;1.20;1.20;;;;;;;17.26;100.00;91071.09;5013069;28;20037;-71
2023/06/19 05:34:49;;;;;;;1.92;1.83;;;;;;;17.49;100.00;91069.38;5025625;28;20029;-70
2023/06/19 05:37:16;;;;;;;2.92;1.73;;;;;;;17.75;100.00;91068.09;5027991;28;20061;-71
2023/06/19 05:39:42;;;;;;;3.50;2.10;;;;;;;17.83;100.00;91061.75;5017660;28;20033;-69
2023/06/19 05:42:07;;;;;;;1.38;1.13;;;;;;;18.11;100.00;91073.16;5013636;28;20038;-70
2023/06/19 05:44:33;;;;;;;2.17;2.08;;;;;;;18.29;100.00;91078.16;5011756;28;20026;-72
2023/06/19 05:46:58;;;;;;;1.75;1.65;;;;;;;18.36;100.00;91086.41;5011252;28;20152;-70
2023/06/19 05:49:23;;;;;;;1.33;1.23;;;;;;;18.63;100.00;91090.88;5011431;28;20022;-69
2023/06/19 05:51:49;;;;;;;2.33;2.13;;;;;;;21.31;100.00;91096.00;5010473;28;20498;-68
2023/06/19 05:54:14;;;;;;;1.23;1.23;;;;;;;24.08;100.00;91095.03;5011218;28;20041;-69
2023/06/19 05:56:39;;;;;;;1.83;1.73;;;;;;;27.10;100.00;91103.06;5030417;28;20029;-69
2023/06/19 05:59:05;;;;;;;1.90;1.80;;;;;;;28.85;99.05;91096.78;5024029;28;20021;-66
2023/06/19 06:01:30;;;;;;;2.63;2.15;;;;;;;31.07;63.25;91106.69;5030798;28;20128;-64
2023/06/19 06:03:56;;;;;;;2.38;1.27;;;;;;;31.92;51.86;91107.22;5030913;28;20475;-64
2023/06/19 06:06:25;;;;;;;2.00;1.63;;;;;;;31.75;51.90;91108.50;5030599;28;20412;-64
2023/06/19 06:08:54;;;;;;;2.72;1.27;;;;;;;31.18;54.03;91107.22;5030622;28;20113;-70
2023/06/19 06:11:20;;;;;;;1.77;1.67;;;;;;;32.68;50.94;91106.53;5030167;28;20038;-67
2023/06/19 06:13:46;;;;;;;6.85;2.00;;;;;;;34.55;45.86;91122.53;5030747;28;20037;-68
2023/06/19 06:16:14;;;;;;;1.88;1.77;;;;;;;34.65;44.80;91113.09;5030682;28;20450;-69
2023/06/19 06:18:39;;;;;;;2.63;2.40;;;;;;;34.91;45.09;91112.91;5030661;28;20037;-67
2023/06/19 06:21:05;;;;;;;2.15;1.52;;;;;;;35.94;41.85;91108.59;5030746;28;20041;-67
2023/06/19 06:23:30;;;;;;;1.13;1.05;;;;;;;34.84;42.69;91111.16;5030697;28;20029;-67
2023/06/19 06:26:01;;;;;;;1.33;1.23;;;;;;;33.70;44.58;91117.38;5030414;28;20476;-67
2023/06/19 06:28:26;;;;;;;1.05;1.05;;;;;;;33.16;45.94;91119.19;5030746;28;20037;-66
2023/06/19 06:30:52;;;;;;;1.45;1.00;;;;;;;34.47;42.85;91116.53;5030886;28;20088;-66
2023/06/19 06:33:17;;;;;;;1.42;1.33;;;;;;;34.92;43.60;91120.75;5030561;28;20132;-67
2023/06/19 06:35:43;;;;;;;1.50;1.40;;;;;;;35.58;41.42;91121.19;5030556;28;20025;-67
2023/06/19 06:38:09;;;;;;;1.00;1.00;;;;;;;35.42;42.05;91113.19;5030585;28;20090;-66
2023/06/19 06:40:35;;;;;;;8.57;1.85;;;;;;;37.46;38.68;91113.84;5029142;28;20037;-69
2023/06/19 06:43:00;;;;;;;1.40;1.13;;;;;;;38.02;37.92;91115.72;5030342;28;20049;-67
2023/06/19 06:45:25;;;;;;;1.25;1.25;;;;;;;39.30;35.75;91116.44;5030463;28;20140;-68
2023/06/19 06:47:51;;;;;;;4.55;1.80;;;;;;;37.20;37.71;91116.28;5030530;28;20033;-67
2023/06/19 06:50:16;;;;;;;0.80;0.80;;;;;;;36.68;38.55;91114.78;5030458;28;20029;-67
2023/06/19 06:52:42;;;;;;;1.67;1.58;;;;;;;37.16;38.42;91110.91;5030357;28;20108;-67
2023/06/19 06:55:07;;;;;;;1.77;1.67;;;;;;;36.22;38.08;91118.44;5030252;28;20052;-68
2023/06/19 06:57:33;;;;;;;3.22;1.55;;;;;;;37.58;36.18;91112.06;5030923;28;20029;-67
2023/06/19 06:59:58;;;;;;;1.85;1.73;;;;;;;37.88;36.51;91112.94;5034318;28;20033;-70
2023/06/19 07:02:24;;;;;;;1.58;1.48;;;;;;;36.88;37.09;91106.72;5034013;28;20504;-70
2023/06/19 07:04:49;;;;;;;1.77;1.20;;;;;;;35.34;40.56;91123.75;5034451;28;20041;-69
2023/06/19 07:07:44;;;;;;;1.77;1.23;;;;;;;34.24;40.64;91120.53;5034024;28;20492;-72
2023/06/19 07:10:10;;;;;;;1.77;1.67;;;;;;;31.95;43.10;91081.56;5011619;28;20048;-69
2023/06/19 07:12:43;;;;;;;22.05;2.72;;;;;;;31.91;45.77;91088.38;5033942;28;20029;-68
2023/06/19 07:15:09;;;;;;;1.15;1.15;;;;;;;32.31;45.42;91122.59;5033941;28;20075;-69
2023/06/19 07:17:34;;;;;;;1.63;1.52;;;;;;;34.39;40.24;91117.25;5034203;28;20033;-68
2023/06/19 07:20:00;;;;;;;3.10;2.80;;;;;;;31.89;45.07;91119.09;5033949;28;20085;-68
2023/06/19 07:22:25;;;;;;;2.65;2.38;;;;;;;32.46;45.29;91123.72;5049542;28;20120;-68
2023/06/19 07:24:50;;;;;;;1.17;1.10;;;;;;;31.78;45.48;91118.63;5032305;28;20029;-68
2023/06/19 07:27:16;;;;;;;2.40;1.50;;;;;;;32.49;44.43;91100.03;5033441;28;20454;-68
2023/06/19 07:29:43;;;;;;;2.38;1.65;;;;;;;33.69;43.44;91126.88;5033965;28;20105;-68
2023/06/19 07:32:10;;;;;;;1.58;1.48;;;;;;;35.48;41.44;91121.66;5033652;28;20636;-69
2023/06/19 07:34:36;;;;;;;4.30;1.70;;;;;;;34.71;40.25;91116.78;5033846;28;20029;-69
2023/06/19 07:37:01;;;;;;;1.40;1.30;;;;;;;34.76;42.14;91130.03;5032211;28;20111;-69
2023/06/19 07:39:26;;;;;;;4.78;1.80;;;;;;;35.41;39.82;91120.72;5033537;28;20065;-69
2023/06/19 07:41:52;;;;;;;3.33;1.30;;;;;;;35.69;37.67;91115.22;5033185;28;20034;-69
2023/06/19 07:44:18;;;;;;;3.08;2.78;;;;;;;35.31;37.89;91113.59;5032165;28;20454;-68
2023/06/19 07:46:43;;;;;;;2.10;1.90;;;;;;;29.93;46.56;91107.31;5033658;28;20466;-69
2023/06/19 07:49:09;;;;;;;1.60;1.50;;;;;;;28.30;50.24;91109.03;5033350;28;20222;-69
2023/06/19 07:51:34;;;;;;;1.33;1.30;;;;;;;26.04;58.61;91121.06;5033496;28;20025;-69
2023/06/19 07:53:59;;;;;;;2.65;1.58;;;;;;;24.57;70.63;91104.38;5031957;28;20407;-68
2023/06/19 07:56:25;;;;;;;1.58;1.48;;;;;;;26.32;67.53;91107.19;5032898;28;20518;-68
2023/06/19 07:58:50;;;;;;;1.17;1.17;;;;;;;27.98;57.09;91127.81;5033174;28;20025;-68
2023/06/19 08:01:16;;;;;;;1.67;1.52;;;;;;;30.74;48.93;91119.69;5033260;28;20033;-69
2023/06/19 08:03:42;;;;;;;2.22;2.13;;;;;;;31.45;45.97;91120.69;5031682;28;20064;-69
2023/06/19 08:06:07;;;;;;;0.88;0.88;;;;;;;31.00;48.23;91124.16;5033010;28;20566;-68
2023/06/19 08:08:33;;;;;;;11.02;1.88;;;;;;;32.62;42.48;91108.28;5033007;28;20039;-69
2023/06/19 08:10:58;;;;;;;1.48;1.38;;;;;;;33.20;40.96;91119.81;5032533;28;20022;-69
2023/06/19 08:13:24;;;;;;;2.40;2.20;;;;;;;34.08;38.30;91126.25;5031644;28;20026;-69
2023/06/19 08:15:49;;;;;;;1.60;1.30;;;;;;;35.70;37.73;91122.28;5033099;28;20434;-68
2023/06/19 08:18:14;;;;;;;1.55;1.45;;;;;;;37.35;36.18;91119.91;5033210;28;20026;-68
2023/06/19 08:20:40;;;;;;;1.70;1.60;;;;;;;37.35;37.54;91122.69;5033096;28;20025;-68
2023/06/19 08:23:05;;;;;;;2.42;2.22;;;;;;;35.01;36.66;91125.50;5032945;28;20430;-68
2023/06/19 08:25:31;;;;;;;4.47;3.65;;;;;;;29.16;46.12;91110.38;5032305;28;20427;-67
2023/06/19 08:27:56;;;;;;;1.13;1.02;;;;;;;26.81;50.76;91107.97;5032373;28;20506;-67
2023/06/19 08:30:21;;;;;;;2.03;1.92;;;;;;;27.63;54.17;91113.44;5032772;28;20033;-67
2023/06/19 08:32:48;;;;;;;3.05;1.98;;;;;;;28.52;50.45;91125.09;5032511;28;20021;-67
2023/06/19 08:35:15;;;;;;;1.05;1.05;;;;;;;26.59;56.85;91125.75;5032566;28;20025;-67
2023/06/19 08:37:40;;;;;;;1.17;1.10;;;;;;;24.64;74.67;91130.81;5032796;28;20030;-68
2023/06/19 08:40:09;;;;;;;2.28;1.80;;;;;;;24.08;89.11;91124.16;5032069;28;20025;-67
2023/06/19 08:42:35;;;;;;;1.67;1.58;;;;;;;27.36;68.85;91135.16;5032418;28;20034;-67
2023/06/19 08:45:00;;;;;;;1.60;1.50;;;;;;;30.24;55.59;91118.84;5032468;28;20037;-67
2023/06/19 08:47:31;;;;;;;1.25;1.17;;;;;;;32.32;48.83;91121.38;5032219;28;20037;-68
2023/06/19 08:49:58;;;;;;;1.42;1.33;;;;;;;35.49;44.10;91137.00;5032557;28;20046;-68
2023/06/19 08:52:23;;;;;;;3.05;1.67;;;;;;;30.50;47.92;91111.59;5032221;28;20499;-67
2023/06/19 08:54:49;;;;;;;1.20;1.10;;;;;;;28.04;54.95;91131.63;5032152;28;20033;-67
2023/06/19 08:57:14;;;;;;;2.00;1.58;;;;;;;27.35;60.28;91125.44;5047287;28;20029;-67
2023/06/19 08:59:47;;;;;;;1.60;1.50;;;;;;;28.80;55.42;91124.66;5032225;28;20075;-67
2023/06/19 09:02:13;;;;;;;2.45;2.15;;;;;;;29.10;52.50;91120.28;5032030;28;20459;-68
2023/06/19 09:04:38;;;;;;;1.27;1.20;;;;;;;28.75;54.36;91122.41;5032305;28;20065;-68
2023/06/19 09:07:04;;;;;;;1.58;1.48;;;;;;;28.19;53.74;91122.03;5030800;28;20171;-69
2023/06/19 09:09:32;;;;;;;3.35;1.80;;;;;;;31.71;47.90;91133.28;5031566;28;20033;-72
2023/06/19 09:12:00;;;;;;;2.50;1.98;;;;;;;33.32;44.97;91126.53;5032081;28;20033;-73
2023/06/19 09:14:35;;;;;;;2.45;1.33;;;;;;;36.14;38.84;91130.31;5031867;28;20431;-70
2023/06/19 09:17:03;;;;;;;1.30;1.27;;;;;;;38.90;35.30;91134.53;5031989;28;20044;-71
2023/06/19 09:19:28;;;;;;;1.58;1.48;;;;;;;35.49;36.85;91123.19;5009043;28;20116;-69
2023/06/19 09:22:07;;;;;;;1.60;1.50;;;;;;;36.38;37.34;91111.81;5011663;28;20102;-74
2023/06/19 09:24:37;;;;;;;1.30;1.20;;;;;;;31.40;41.66;91115.69;5011838;28;20034;-69
2023/06/19 09:27:15;;;;;;;1.73;1.52;;;;;;;28.40;46.49;91109.25;5011987;28;20034;-70
2023/06/19 09:29:42;;;;;;;2.45;1.77;;;;;;;26.19;54.97;91095.22;5011574;28;20492;-68
2023/06/19 09:32:21;;;;;;;1.88;1.67;;;;;;;25.20;58.23;91129.94;5011236;28;20021;-68
2023/06/19 09:34:48;;;;;;;1.40;1.30;;;;;;;24.73;68.82;91126.50;5011696;28;20555;-68
2023/06/19 09:37:14;;;;;;;1.27;1.17;;;;;;;23.83;74.67;91088.81;5010370;28;20030;-68
2023/06/19 09:39:41;;;;;;;2.10;1.60;;;;;;;24.29;72.52;91131.53;5011770;28;20041;-67
2023/06/19 09:42:07;;;;;;;2.03;1.92;;;;;;;24.28;72.89;91110.94;5011849;28;20038;-69
2023/06/19 09:45:01;;;;;;;1.52;1.30;;;;;;;25.69;59.70;91117.31;5009172;28;20686;-72
2023/06/19 09:47:35;;;;;;;1.90;1.45;;;;;;;24.57;64.75;91123.41;5011084;28;20026;-69
2023/06/19 09:50:02;;;;;;;1.23;1.13;;;;;;;27.60;54.72;91107.94;5010269;28;20034;-72
2023/06/19 09:52:29;;;;;;;1.88;1.77;;;;;;;28.04;50.01;91109.75;5011679;28;20022;-71
2023/06/19 09:55:02;;;;;;;1.50;1.40;;;;;;;28.97;50.64;91108.38;5011759;28;20036;-71
2023/06/19 09:57:34;;;;;;;2.35;1.85;;;;;;;30.71;45.55;91124.06;5011661;28;20467;-72
2023/06/19 10:00:12;;;;;;;0.93;0.90;;;;;;;33.54;43.99;91127.34;5010962;28;20128;-71
2023/06/19 10:02:42;;;;;;;3.30;1.58;;;;;;;32.50;40.91;91112.59;5009548;28;20133;-69
2023/06/19 10:05:11;;;;;;;1.92;1.77;;;;;;;28.20;46.69;91112.66;5011200;28;20030;-71
2023/06/19 10:07:39;;;;;;;1.02;1.02;;;;;;;26.61;51.15;91117.91;5011375;28;20030;-71
2023/06/19 10:10:06;;;;;;;1.60;1.48;;;;;;;25.68;54.45;91104.88;5011259;28;20077;-71
2023/06/19 10:12:47;;;;;;;1.42;1.30;;;;;;;25.09;58.48;91118.31;5010075;28;20041;-70
2023/06/19 10:15:19;;;;;;;1.63;1.52;;;;;;;24.63;63.63;91113.72;5010139;28;20088;-73
2023/06/19 10:17:59;;;;;;;1.83;1.73;;;;;;;24.03;65.22;91113.66;5011051;28;20041;-73
2023/06/19 10:20:31;;;;;;;1.50;1.40;;;;;;;23.99;65.06;91110.16;5011393;28;20083;-72
2023/06/19 10:22:58;;;;;;;1.40;1.30;;;;;;;26.26;61.02;91119.72;5011383;28;20473;-72
2023/06/19 10:25:26;;;;;;;2.15;1.65;;;;;;;27.94;54.92;91111.47;5011264;28;20034;-70
2023/06/19 10:27:52;;;;;;;1.60;1.50;;;;;;;29.47;50.82;91111.75;5011392;28;20034;-71
2023/06/19 10:30:19;;;;;;;9.80;1.63;;;;;;;27.74;50.88;91099.59;5011292;28;20032;-70
2023/06/19 10:32:45;;;;;;;2.03;1.83;;;;;;;27.16;53.42;91101.44;5012396;28;20042;-72
2023/06/19 10:35:15;;;;;;;1.35;1.27;;;;;;;25.51;57.92;91111.94;5014004;28;20065;-71
2023/06/19 10:37:40;;;;;;;7.30;2.05;;;;;;;23.91;65.13;91101.22;5015225;28;20541;-72
2023/06/19 10:40:12;;;;;;;1.48;1.38;;;;;;;24.47;68.18;91099.72;5015390;28;20037;-72
2023/06/19 10:42:42;;;;;;;2.73;2.53;;;;;;;26.99;59.81;91096.91;5015275;28;20037;-72
2023/06/19 10:45:11;;;;;;;1.33;1.33;;;;;;;26.74;55.66;91103.38;5015189;28;20022;-72
2023/06/19 10:47:39;;;;;;;1.35;1.27;;;;;;;26.43;56.54;91094.28;5015561;28;20033;-72
2023/06/19 10:50:14;;;;;;;1.55;1.45;;;;;;;27.33;53.96;91096.97;5015792;28;20455;-71
2023/06/19 10:52:44;;;;;;;1.63;1.52;;;;;;;27.45;53.90;91101.88;5015479;28;20112;-73
2023/06/19 10:55:11;;;;;;;1.00;1.00;;;;;;;29.71;49.17;91098.00;5015259;28;20038;-72
2023/06/19 10:57:37;;;;;;;1.13;1.13;;;;;;;31.18;44.01;91094.25;5015219;28;20029;-73
2023/06/19 11:00:11;;;;;;;1.83;1.73;;;;;;;33.03;40.36;91094.38;5015226;28;20034;-72
2023/06/19 11:02:37;;;;;;;4.65;1.95;;;;;;;30.66;43.29;91092.41;5014930;28;20046;-74
2023/06/19 11:05:04;;;;;;;1.52;1.42;;;;;;;32.31;41.26;91095.06;5014854;28;20064;-73
2023/06/19 11:07:31;;;;;;;1.17;1.17;;;;;;;31.01;42.26;91089.97;5014878;28;20116;-74
2023/06/19 11:09:57;;;;;;;1.33;1.23;;;;;;;32.01;42.42;91088.06;5014729;28;20026;-70
2023/06/19 11:12:23;;;;;;;2.40;1.27;;;;;;;30.79;41.39;91087.00;5014667;28;20033;-71
2023/06/19 11:14:49;;;;;;;3.05;2.67;;;;;;;27.88;46.95;91093.16;5014799;28;20022;-71
2023/06/19 11:17:16;;;;;;;2.25;1.90;;;;;;;28.48;49.95;91080.59;5014592;28;20041;-73
2023/06/19 11:19:43;;;;;;;6.00;2.70;;;;;;;30.18;46.36;91092.34;5014544;28;20034;-72
2023/06/19 11:22:09;;;;;;;1.17;1.17;;;;;;;30.11;45.65;91091.28;5014571;28;20068;-74
2023/06/19 11:24:34;;;;;;;3.15;1.30;;;;;;;30.80;44.60;91080.31;5014476;28;20054;-73
2023/06/19 11:27:00;;;;;;;2.20;1.42;;;;;;;32.78;41.70;91081.38;5014365;28;20121;-72
2023/06/19 11:29:29;;;;;;;2.75;1.65;;;;;;;32.00;40.35;91086.53;5014719;28;20030;-73